Taikasan — 7JYP — position and weather

sailwx.info

Track history (hours):
 
Tides and Currents Weather Stations Pressure Air Temp Water Temp Dewpoint Dewpoint Depression Visibility Wind Speed Wind Dir Waves Ship Positions

Taikasan

Last reported at 2018-Jun-25 07:18 UTC. Time now 2018-Jun-25 17:38 UTC.
Position N 35°07' E 139°45'.

Length 74 m; draft 4.5 m.

Type: Tanker. MMSI: 431412000.

Date/timePositionNaut miles runAvg speedWind from/ knotsBaromVisibWave heightAir tempDewpointWater temp
2018-Jun-25 07:18N 35°07' E 139°45'412.1
2018-Jun-25 06:59N 35°11' E 139°46'611.5
2018-Jun-25 06:27N 35°17' E 139°45'511.4
2018-Jun-25 06:00N 35°22' E 139°43'611.0
2018-Jun-25 05:30N 35°26' E 139°46'611.2
2018-Jun-25 05:00N 35°30' E 139°52'610.9
2018-Jun-25 04:28N 35°31' E 139°59'3 0.9
2018-Jun-25 00:53N 35°30' E 140°02'0 0.0
2018-Jun-25 00:26N 35°30' E 140°02'0 0.0
2018-Jun-24 23:56N 35°30' E 140°02'0 0.0
2018-Jun-24 23:24N 35°30' E 140°02'1 2.4
2018-Jun-24 23:00N 35°30' E 140°01'5 1.6
2018-Jun-24 20:03N 35°29' E 139°55'0 0.1
2018-Jun-24 20:00N 35°29' E 139°55'0 0.0
2018-Jun-24 18:54N 35°29' E 139°55'0 0.0
2018-Jun-24 16:33N 35°29' E 139°55'0 0.0
2018-Jun-24 16:30N 35°29' E 139°55'0 0.0
2018-Jun-24 16:00N 35°29' E 139°55'0 0.0
2018-Jun-24 09:54N 35°29' E 139°55'0 0.1
2018-Jun-24 09:15N 35°29' E 139°55'0 0.0
2018-Jun-24 08:48N 35°29' E 139°55'5 0.8
2018-Jun-24 03:09N 35°27' E 139°50'212.5
2018-Jun-24 02:58N 35°26' E 139°48'612.2
2018-Jun-24 02:30N 35°21' E 139°45'611.5
2018-Jun-24 02:01N 35°15' E 139°47'611.8
2018-Jun-24 01:30N 35°10' E 139°46'24910.9
2018-Jun-23 02:43N 33°56' E 134°57'1012.7
2018-Jun-23 01:55N 34°04' E 134°49'1013.1
2018-Jun-23 01:08N 34°12' E 134°41'214.0
2018-Jun-23 00:59N 34°13' E 134°40'812.4
2018-Jun-23 00:22N 34°17' E 134°32'512.9
2018-Jun-22 23:58N 34°19' E 134°26'7 0.2
2018-Jun-21 17:19N 34°23' E 134°19'412.4
2018-Jun-21 17:00N 34°21' E 134°24'612.4
2018-Jun-21 16:29N 34°19' E 134°31'812.4
2018-Jun-21 15:48N 34°14' E 134°39'413.3
2018-Jun-21 15:29N 34°10' E 134°42'612.5
2018-Jun-21 15:00N 34°06' E 134°47'712.3
2018-Jun-21 14:28N 34°01' E 134°53'612.6
2018-Jun-21 14:00N 33°57' E 134°57'612.0
2018-Jun-21 13:30N 33°52' E 135°02'  
2018-Jun-19 00:38N 35°07' E 139°41'212.2
2018-Jun-19 00:30N 35°08' E 139°42'612.6
2018-Jun-19 00:00N 35°13' E 139°46'712.4
2018-Jun-18 23:24N 35°20' E 139°42'512.0
2018-Jun-18 23:00N 35°25' E 139°43'612.3
2018-Jun-18 22:30N 35°28' E 139°49'5 0.3
2018-Jun-18 06:17N 35°29' E 139°55'9 1.2
2018-Jun-17 23:11N 35°24' E 139°46'212.2
2018-Jun-17 23:00N 35°22' E 139°45'510.9
2018-Jun-17 22:30N 35°17' E 139°46'611.6
2018-Jun-17 22:00N 35°11' E 139°46'24810.3
2018-Jun-16 21:56N 33°52' E 135°02'612.5
2018-Jun-16 21:26N 33°57' E 134°57'912.4
2018-Jun-16 20:41N 34°04' E 134°49'1012.8
2018-Jun-16 19:52N 34°12' E 134°41'1012.3
2018-Jun-16 19:03N 34°17' E 134°31'112.1
2018-Jun-16 19:00N 34°18' E 134°31'  
Track history (hours):
 
Tides and Currents Weather Stations Pressure Air Temp Water Temp Dewpoint Dewpoint Depression Visibility Wind Speed Wind Dir Waves Ship Positions

Taikasan

Last reported at 2018-Jun-25 07:18 UTC. Time now 2018-Jun-25 17:38 UTC.
Position N 35°07' E 139°45'.

Length 74 m; draft 4.5 m.

Type: Tanker. MMSI: 431412000.

Date/timePositionNaut miles runAvg speedWind from/ knotsBaromVisibWave heightAir tempDewpointWater temp
2018-Jun-25 07:18N 35°07' E 139°45'412.1
2018-Jun-25 06:59N 35°11' E 139°46'611.5
2018-Jun-25 06:27N 35°17' E 139°45'511.4
2018-Jun-25 06:00N 35°22' E 139°43'611.0
2018-Jun-25 05:30N 35°26' E 139°46'611.2
2018-Jun-25 05:00N 35°30' E 139°52'610.9
2018-Jun-25 04:28N 35°31' E 139°59'3 0.9
2018-Jun-25 00:53N 35°30' E 140°02'0 0.0
2018-Jun-25 00:26N 35°30' E 140°02'0 0.0
2018-Jun-24 23:56N 35°30' E 140°02'0 0.0
2018-Jun-24 23:24N 35°30' E 140°02'1 2.4
2018-Jun-24 23:00N 35°30' E 140°01'5 1.6
2018-Jun-24 20:03N 35°29' E 139°55'0 0.1
2018-Jun-24 20:00N 35°29' E 139°55'0 0.0
2018-Jun-24 18:54N 35°29' E 139°55'0 0.0
2018-Jun-24 16:33N 35°29' E 139°55'0 0.0
2018-Jun-24 16:30N 35°29' E 139°55'0 0.0
2018-Jun-24 16:00N 35°29' E 139°55'0 0.0
2018-Jun-24 09:54N 35°29' E 139°55'0 0.1
2018-Jun-24 09:15N 35°29' E 139°55'0 0.0
2018-Jun-24 08:48N 35°29' E 139°55'5 0.8
2018-Jun-24 03:09N 35°27' E 139°50'212.5
2018-Jun-24 02:58N 35°26' E 139°48'612.2
2018-Jun-24 02:30N 35°21' E 139°45'611.5
2018-Jun-24 02:01N 35°15' E 139°47'611.8
2018-Jun-24 01:30N 35°10' E 139°46'24910.9
2018-Jun-23 02:43N 33°56' E 134°57'1012.7
2018-Jun-23 01:55N 34°04' E 134°49'1013.1
2018-Jun-23 01:08N 34°12' E 134°41'214.0
2018-Jun-23 00:59N 34°13' E 134°40'812.4
2018-Jun-23 00:22N 34°17' E 134°32'512.9
2018-Jun-22 23:58N 34°19' E 134°26'7 0.2
2018-Jun-21 17:19N 34°23' E 134°19'412.4
2018-Jun-21 17:00N 34°21' E 134°24'612.4
2018-Jun-21 16:29N 34°19' E 134°31'812.4
2018-Jun-21 15:48N 34°14' E 134°39'413.3
2018-Jun-21 15:29N 34°10' E 134°42'612.5
2018-Jun-21 15:00N 34°06' E 134°47'712.3
2018-Jun-21 14:28N 34°01' E 134°53'612.6
2018-Jun-21 14:00N 33°57' E 134°57'612.0
2018-Jun-21 13:30N 33°52' E 135°02'  
2018-Jun-19 00:38N 35°07' E 139°41'212.2
2018-Jun-19 00:30N 35°08' E 139°42'612.6
2018-Jun-19 00:00N 35°13' E 139°46'712.4
2018-Jun-18 23:24N 35°20' E 139°42'512.0
2018-Jun-18 23:00N 35°25' E 139°43'612.3
2018-Jun-18 22:30N 35°28' E 139°49'5 0.3
2018-Jun-18 06:17N 35°29' E 139°55'9 1.2
2018-Jun-17 23:11N 35°24' E 139°46'212.2
2018-Jun-17 23:00N 35°22' E 139°45'510.9
2018-Jun-17 22:30N 35°17' E 139°46'611.6
2018-Jun-17 22:00N 35°11' E 139°46'24810.3
2018-Jun-16 21:56N 33°52' E 135°02'612.5
2018-Jun-16 21:26N 33°57' E 134°57'912.4
2018-Jun-16 20:41N 34°04' E 134°49'1012.8
2018-Jun-16 19:52N 34°12' E 134°41'1012.3
2018-Jun-16 19:03N 34°17' E 134°31'112.1
2018-Jun-16 19:00N 34°18' E 134°31'  

Dump ship's entire track history